createdAt,value
2018-02-10T00:00:15.889Z,23.90
2018-02-10T00:01:18.404Z,24.55
2018-02-10T00:02:20.953Z,23.20
2018-02-10T00:03:24.245Z,24.73
2018-02-10T00:04:26.781Z,26.23
2018-02-10T00:05:29.341Z,24.27
2018-02-10T00:06:31.868Z,23.60
2018-02-10T00:07:34.380Z,23.58
2018-02-10T00:08:36.901Z,24.33
2018-02-10T00:09:39.417Z,22.55
2018-02-10T00:10:42.750Z,22.75
2018-02-10T00:11:45.269Z,23.42
2018-02-10T00:12:48.564Z,23.67
2018-02-10T00:13:51.876Z,23.35
2018-02-10T00:14:54.391Z,23.70
2018-02-10T00:15:56.953Z,24.63
2018-02-10T00:16:59.473Z,23.52
2018-02-10T00:18:01.992Z,23.20
2018-02-10T00:19:04.519Z,23.42
2018-02-10T00:20:07.044Z,24.92
2018-02-10T00:21:10.412Z,25.37
2018-02-10T00:22:24.853Z,24.33
2018-02-10T00:23:27.369Z,23.90
2018-02-10T00:24:29.952Z,23.98
2018-02-10T00:25:32.491Z,23.12
2018-02-10T00:26:35.041Z,24.90
2018-02-10T00:27:38.329Z,22.45
2018-02-10T00:28:41.630Z,25.15
2018-02-10T00:29:44.186Z,22.77
2018-02-10T00:30:46.710Z,24.33
2018-02-10T00:31:49.226Z,24.20
2018-02-10T00:32:51.749Z,23.48
2018-02-10T00:33:54.316Z,24.95
2018-02-10T00:34:56.844Z,24.02
2018-02-10T00:35:59.364Z,25.42
2018-02-10T00:37:02.643Z,25.85
2018-02-10T00:38:05.924Z,25.62
2018-02-10T00:39:09.257Z,24.15
2018-02-10T00:40:11.776Z,25.15
2018-02-10T00:41:15.060Z,25.85
2018-02-10T00:42:18.392Z,25.08
2018-02-10T00:43:20.916Z,25.05
2018-02-10T00:44:24.200Z,26.10
2018-02-10T00:45:27.481Z,25.17
2018-02-10T00:46:30.777Z,26.02
2018-02-10T00:47:34.100Z,24.95
2018-02-10T00:48:37.388Z,25.55
2018-02-10T00:49:39.912Z,23.38
2018-02-10T00:50:43.190Z,24.58
2018-02-10T00:51:46.477Z,24.45
2018-02-10T00:52:49.813Z,24.20
2018-02-10T00:53:52.384Z,24.45
2018-02-10T00:54:54.900Z,25.50
2018-02-10T00:55:57.425Z,25.17
2018-02-10T00:56:59.940Z,25.10
2018-02-10T00:58:02.501Z,24.90
2018-02-10T00:59:05.030Z,24.75
2018-02-10T01:00:07.561Z,26.30
2018-02-10T01:01:10.077Z,25.77
2018-02-10T01:02:13.363Z,27.55
2018-02-10T01:03:16.698Z,23.80
2018-02-10T01:04:19.226Z,24.30
2018-02-10T01:05:21.750Z,25.48
2018-02-10T01:06:24.267Z,25.80
2018-02-10T01:07:26.793Z,24.52
2018-02-10T01:08:29.349Z,25.58
2018-02-10T01:09:31.883Z,27.30
2018-02-10T01:10:34.396Z,26.67
2018-02-10T01:11:36.945Z,24.45
2018-02-10T01:12:39.473Z,26.80
2018-02-10T01:13:42.030Z,26.40
2018-02-10T01:14:44.550Z,26.80
2018-02-10T01:15:47.073Z,25.10
2018-02-10T01:16:49.633Z,24.65
2018-02-10T01:17:52.157Z,28.60
2018-02-10T01:18:54.672Z,25.10
2018-02-10T01:19:57.192Z,26.42
2018-02-10T01:20:59.744Z,26.27
2018-02-10T01:22:02.274Z,28.48
2018-02-10T01:23:04.792Z,26.12
2018-02-10T01:24:07.308Z,26.92
2018-02-10T01:25:09.832Z,28.15
2018-02-10T01:26:13.157Z,26.83
2018-02-10T01:27:15.719Z,25.37
2018-02-10T01:28:18.237Z,26.87
2018-02-10T01:29:20.758Z,25.10
2018-02-10T01:30:23.272Z,26.45
2018-02-10T01:31:26.601Z,26.80
2018-02-10T01:32:29.165Z,26.80
2018-02-10T01:33:31.680Z,26.05
2018-02-10T01:34:34.201Z,25.58
2018-02-10T01:35:36.719Z,25.60
2018-02-10T01:36:39.237Z,25.45
2018-02-10T01:37:41.796Z,24.42
2018-02-10T01:38:44.316Z,26.83
2018-02-10T01:39:47.613Z,26.50
2018-02-10T01:40:50.910Z,24.60
2018-02-10T01:41:53.437Z,25.85
2018-02-10T01:42:55.999Z,24.75
2018-02-10T01:43:58.520Z,24.52
2018-02-10T01:45:01.045Z,26.45
2018-02-10T01:46:03.572Z,25.65
2018-02-10T01:47:06.098Z,26.85
2018-02-10T01:48:08.668Z,25.60
2018-02-10T01:49:11.946Z,26.45
2018-02-10T01:50:21.225Z,25.52
2018-02-10T01:51:23.749Z,25.30
2018-02-10T01:52:26.285Z,25.08
2018-02-10T01:53:28.853Z,26.40
2018-02-10T01:54:32.154Z,25.23
2018-02-10T01:55:35.477Z,26.65
2018-02-10T01:56:38.006Z,27.00
2018-02-10T01:57:41.298Z,27.17
2018-02-10T01:58:43.897Z,25.62
2018-02-10T01:59:46.430Z,27.45
2018-02-10T02:00:48.960Z,29.45
2018-02-10T02:01:51.484Z,26.20
2018-02-10T02:02:54.019Z,27.52
2018-02-10T02:03:57.349Z,26.60
2018-02-10T02:04:59.877Z,26.33
2018-02-10T02:06:02.412Z,26.90
2018-02-10T02:07:04.940Z,30.65
2018-02-10T02:08:07.461Z,28.05
2018-02-10T02:09:10.793Z,27.77
2018-02-10T02:10:13.323Z,24.73
2018-02-10T02:11:15.866Z,28.02
2018-02-10T02:12:18.384Z,25.15
2018-02-10T02:13:20.908Z,26.58
2018-02-10T02:14:24.244Z,27.20
2018-02-10T02:15:26.760Z,27.90
2018-02-10T02:16:30.063Z,26.23
2018-02-10T02:17:32.632Z,28.17
2018-02-10T02:18:35.888Z,27.15
2018-02-10T02:19:39.218Z,28.23
2018-02-10T02:20:41.737Z,28.12
2018-02-10T02:21:45.050Z,27.90
2018-02-10T02:22:47.572Z,26.95
2018-02-10T02:23:50.096Z,27.90
2018-02-10T02:24:52.619Z,27.65
2018-02-10T02:25:55.904Z,27.05
2018-02-10T02:26:59.218Z,28.35
2018-02-10T02:28:01.752Z,27.77
2018-02-10T02:29:05.027Z,26.55
2018-02-10T02:30:07.544Z,27.17
2018-02-10T02:31:10.192Z,27.62
2018-02-10T02:32:12.741Z,27.85
2018-02-10T02:33:16.028Z,27.87
2018-02-10T02:34:19.441Z,27.92
2018-02-10T02:35:21.956Z,27.33
2018-02-10T02:36:24.468Z,27.45
2018-02-10T02:37:26.984Z,27.10
2018-02-10T02:38:29.496Z,26.77
2018-02-10T02:39:32.069Z,26.95
2018-02-10T02:40:34.607Z,27.42
2018-02-10T02:41:37.889Z,29.00
2018-02-10T02:42:41.181Z,27.40
2018-02-10T02:43:44.469Z,27.05
2018-02-10T02:44:47.040Z,27.23
2018-02-10T02:45:49.565Z,28.35
2018-02-10T02:46:52.081Z,28.30
2018-02-10T02:47:54.605Z,27.85
2018-02-10T02:48:57.129Z,27.62
2018-02-10T02:49:59.769Z,28.48
2018-02-10T02:51:02.292Z,28.58
2018-02-10T02:52:04.853Z,26.25
2018-02-10T02:53:07.378Z,29.40
2018-02-10T02:54:09.901Z,27.50
2018-02-10T02:55:12.444Z,27.77
2018-02-10T02:56:15.005Z,28.73
2018-02-10T02:57:17.533Z,26.65
2018-02-10T02:58:20.064Z,27.30
2018-02-10T02:59:22.585Z,28.75
2018-02-10T03:00:25.109Z,29.80
2018-02-10T03:01:28.429Z,28.35
2018-02-10T03:02:30.960Z,27.95
2018-02-10T03:03:34.247Z,27.62
2018-02-10T03:04:37.562Z,29.17
2018-02-10T03:05:40.121Z,26.60
2018-02-10T03:06:42.657Z,28.48
2018-02-10T03:07:45.177Z,28.27
2018-02-10T03:08:47.694Z,28.55
2018-02-10T03:09:51.012Z,28.08
2018-02-10T03:10:53.580Z,28.65
2018-02-10T03:11:56.095Z,28.67
2018-02-10T03:12:58.624Z,26.77
2018-02-10T03:14:01.161Z,28.15
2018-02-10T03:15:03.692Z,29.90
2018-02-10T03:16:06.241Z,30.35
2018-02-10T03:17:08.760Z,30.55
2018-02-10T03:18:11.281Z,30.50
2018-02-10T03:19:13.888Z,30.67
2018-02-10T03:20:17.155Z,29.98
2018-02-10T03:21:20.444Z,30.50
2018-02-10T03:22:23.724Z,26.05
2018-02-10T03:23:27.052Z,27.58
2018-02-10T03:24:29.569Z,26.58
2018-02-10T03:25:32.094Z,27.27
2018-02-10T03:26:34.626Z,24.27
2018-02-10T03:28:46.116Z,26.42
2018-02-10T03:29:48.636Z,26.12
2018-02-10T03:30:51.158Z,24.48
2018-02-10T03:31:53.678Z,25.98
2018-02-10T03:32:56.196Z,25.17
2018-02-10T03:33:58.761Z,27.00
2018-02-10T03:35:01.293Z,27.08
2018-02-10T03:36:04.629Z,28.08
2018-02-10T03:37:07.157Z,27.37
2018-02-10T03:38:09.673Z,27.85
2018-02-10T03:39:12.187Z,28.02
2018-02-10T03:40:14.734Z,28.02
2018-02-10T03:41:18.051Z,27.20
2018-02-10T03:42:20.582Z,26.58
2018-02-10T03:43:23.872Z,29.33
2018-02-10T03:44:27.160Z,27.00
2018-02-10T03:45:30.485Z,28.38
2018-02-10T03:46:33.039Z,30.42
2018-02-10T03:47:35.604Z,29.12
2018-02-10T03:48:38.124Z,28.25
2018-02-10T03:49:40.653Z,29.45
2018-02-10T03:50:43.189Z,29.40
2018-02-10T03:51:45.709Z,26.30
2018-02-10T03:52:48.276Z,28.73
2018-02-10T03:53:50.797Z,26.85
2018-02-10T03:54:53.316Z,27.55
2018-02-10T03:55:55.845Z,29.15
2018-02-10T03:56:58.370Z,29.00
2018-02-10T03:58:01.808Z,28.50
2018-02-10T03:59:04.452Z,25.95
2018-02-10T04:00:07.006Z,27.33
2018-02-10T04:01:09.536Z,27.60
2018-02-10T04:02:12.057Z,28.23
2018-02-10T04:03:14.605Z,25.40
2018-02-10T04:04:18.026Z,27.17
2018-02-10T04:05:20.552Z,26.00
2018-02-10T04:06:23.836Z,27.33
2018-02-10T04:07:26.361Z,27.45
2018-02-10T04:08:28.917Z,25.00
2018-02-10T04:09:31.450Z,27.52
2018-02-10T04:10:33.975Z,26.70
2018-02-10T04:11:36.498Z,28.38
2018-02-10T04:12:39.027Z,25.55
2018-02-10T04:13:42.344Z,27.75
2018-02-10T04:14:44.866Z,27.37
2018-02-10T04:15:48.192Z,27.27
2018-02-10T04:16:50.717Z,28.15
2018-02-10T04:17:54.004Z,29.42
2018-02-10T04:18:57.292Z,28.40
2018-02-10T04:20:00.589Z,27.60
2018-02-10T04:21:03.250Z,27.42
2018-02-10T04:22:06.557Z,28.12
2018-02-10T04:23:09.093Z,29.00
2018-02-10T04:24:12.377Z,30.80
2018-02-10T04:25:15.664Z,29.12
2018-02-10T04:26:18.964Z,27.50
2018-02-10T04:27:21.524Z,26.65
2018-02-10T04:28:24.080Z,29.08
2018-02-10T04:29:27.364Z,29.40
2018-02-10T04:30:30.657Z,28.50
2018-02-10T04:31:33.190Z,29.37
2018-02-10T04:32:35.712Z,29.52
2018-02-10T04:33:38.268Z,30.23
2018-02-10T04:34:40.796Z,29.05
2018-02-10T04:35:43.349Z,28.15
2018-02-10T04:36:45.868Z,28.50
2018-02-10T04:37:48.384Z,28.12
2018-02-10T04:38:50.908Z,26.92
2018-02-10T04:39:53.436Z,26.90
2018-02-10T04:40:56.760Z,28.87
2018-02-10T04:41:59.293Z,29.42
2018-02-10T04:43:02.605Z,27.75
2018-02-10T04:44:05.125Z,28.15
2018-02-10T04:45:07.652Z,29.42
2018-02-10T04:46:10.210Z,28.77
2018-02-10T04:47:12.771Z,29.08
2018-02-10T04:48:15.297Z,29.12
2018-02-10T04:49:18.621Z,27.23
2018-02-10T04:50:21.154Z,27.95
2018-02-10T04:51:24.468Z,27.23
2018-02-10T04:52:26.995Z,26.20
2018-02-10T04:53:30.337Z,29.05
2018-02-10T04:54:32.852Z,29.83
2018-02-10T04:55:36.141Z,29.48
2018-02-10T04:56:39.431Z,27.58
2018-02-10T04:57:42.832Z,31.75
2018-02-10T04:58:45.393Z,28.95
2018-02-10T04:59:47.914Z,26.67
2018-02-10T05:00:50.441Z,29.70
2018-02-10T05:01:52.964Z,29.70
2018-02-10T05:02:56.253Z,29.80
2018-02-10T05:03:59.725Z,27.45
2018-02-10T05:05:02.254Z,28.95
2018-02-10T05:06:04.776Z,31.45
2018-02-10T05:07:08.073Z,30.40
2018-02-10T05:08:10.626Z,30.65
2018-02-10T05:09:13.951Z,27.15
2018-02-10T05:10:16.473Z,29.10
2018-02-10T05:11:19.832Z,30.60
2018-02-10T05:12:22.357Z,29.63
2018-02-10T05:13:24.894Z,28.45
2018-02-10T05:14:28.216Z,29.83
2018-02-10T05:15:30.746Z,28.95
2018-02-10T05:16:34.037Z,28.02
2018-02-10T05:17:36.596Z,28.65
2018-02-10T05:18:39.893Z,29.30
2018-02-10T05:19:42.417Z,27.55
2018-02-10T05:20:44.941Z,27.87
2018-02-10T05:21:47.464Z,28.50
2018-02-10T05:22:50.799Z,27.90
2018-02-10T05:23:53.337Z,26.50
2018-02-10T05:24:55.870Z,29.40
2018-02-10T05:25:58.392Z,26.83
2018-02-10T05:27:00.919Z,26.85
2018-02-10T05:28:04.252Z,27.95
2018-02-10T05:29:06.783Z,27.75
2018-02-10T05:30:10.073Z,27.70
2018-02-10T05:31:12.600Z,29.63
2018-02-10T05:32:15.132Z,26.35
2018-02-10T05:33:17.680Z,28.35
2018-02-10T05:34:20.231Z,26.98
2018-02-10T05:35:23.517Z,30.02
2018-02-10T05:36:26.078Z,27.58
2018-02-10T05:37:29.364Z,27.35
2018-02-10T05:38:32.655Z,27.95
2018-02-10T05:39:35.218Z,28.15
2018-02-10T05:40:37.785Z,27.70
2018-02-10T05:41:40.312Z,29.98
2018-02-10T05:42:42.837Z,29.50
2018-02-10T05:43:45.362Z,28.17
2018-02-10T05:44:48.656Z,28.42
2018-02-10T05:45:51.983Z,29.00
2018-02-10T05:46:54.504Z,29.17
2018-02-10T05:47:57.796Z,30.70
2018-02-10T05:49:01.088Z,31.17
2018-02-10T05:50:03.614Z,27.75
2018-02-10T05:51:06.185Z,30.08
2018-02-10T05:52:08.706Z,29.30
2018-02-10T05:53:11.250Z,30.17
2018-02-10T05:54:13.777Z,26.85
2018-02-10T05:55:16.305Z,29.83
2018-02-10T05:56:18.873Z,30.48
2018-02-10T05:57:21.400Z,28.42
2018-02-10T05:58:24.698Z,28.83
2018-02-10T05:59:27.245Z,30.08
2018-02-10T06:00:30.569Z,27.08
2018-02-10T06:01:33.097Z,27.73
2018-02-10T06:02:36.400Z,29.23
2018-02-10T06:03:38.926Z,29.02
2018-02-10T06:04:41.452Z,27.95
2018-02-10T06:05:44.012Z,28.98
2018-02-10T06:06:46.536Z,29.48
2018-02-10T06:07:49.065Z,28.27
2018-02-10T06:08:51.589Z,30.00
2018-02-10T06:09:54.873Z,30.30
2018-02-10T06:10:58.212Z,28.80
2018-02-10T06:12:00.738Z,28.80
2018-02-10T06:13:03.261Z,30.25
2018-02-10T06:14:05.790Z,29.73
2018-02-10T06:15:08.313Z,30.10
2018-02-10T06:16:11.633Z,29.42
2018-02-10T06:17:14.157Z,30.50
2018-02-10T06:18:17.461Z,27.65
2018-02-10T06:19:20.033Z,29.37
2018-02-10T06:20:22.552Z,27.50
2018-02-10T06:21:25.080Z,28.40
2018-02-10T06:22:27.606Z,29.83
2018-02-10T06:23:30.901Z,27.80
2018-02-10T06:24:34.217Z,29.27
2018-02-10T06:25:36.752Z,27.67
2018-02-10T06:26:40.080Z,28.42
2018-02-10T06:27:42.633Z,27.80
2018-02-10T06:28:45.165Z,28.15
2018-02-10T06:29:48.459Z,26.00
2018-02-10T06:30:51.748Z,28.25
2018-02-10T06:31:54.301Z,29.20
2018-02-10T06:32:57.588Z,26.00
2018-02-10T06:34:00.941Z,27.37
2018-02-10T06:35:03.433Z,27.62
2018-02-10T06:36:06.729Z,26.45
2018-02-10T06:37:09.285Z,28.92
2018-02-10T06:38:12.568Z,27.50
2018-02-10T06:39:15.857Z,28.00
2018-02-10T06:40:19.142Z,25.77
2018-02-10T06:41:22.431Z,27.10
2018-02-10T06:42:25.000Z,27.33
2018-02-10T06:43:27.574Z,27.23
2018-02-10T06:44:30.115Z,25.88
2018-02-10T06:45:33.416Z,27.95
2018-02-10T06:46:35.946Z,27.35
2018-02-10T06:47:38.465Z,28.42
2018-02-10T06:48:41.032Z,27.95
2018-02-10T06:49:43.566Z,28.05
2018-02-10T06:50:46.897Z,28.15
2018-02-10T06:51:49.425Z,27.98
2018-02-10T06:52:51.955Z,26.70
2018-02-10T06:53:54.477Z,28.90
2018-02-10T06:54:57.067Z,26.62
2018-02-10T06:55:59.649Z,28.02
2018-02-10T06:57:02.172Z,27.98
2018-02-10T06:58:04.844Z,26.50
2018-02-10T06:59:07.374Z,25.33
2018-02-10T07:00:10.721Z,27.55
2018-02-10T07:01:13.247Z,27.92
2018-02-10T07:02:15.783Z,27.65
2018-02-10T07:03:18.345Z,27.30
2018-02-10T07:04:20.861Z,27.67
2018-02-10T07:05:23.391Z,29.95
2018-02-10T07:06:26.708Z,27.62
2018-02-10T07:07:29.237Z,29.00
2018-02-10T07:08:31.799Z,27.75
2018-02-10T07:09:34.325Z,30.17
2018-02-10T07:10:36.853Z,28.42
2018-02-10T07:11:39.397Z,27.73
2018-02-10T07:12:41.916Z,29.37
2018-02-10T07:13:44.472Z,30.17
2018-02-10T07:14:47.005Z,29.48
2018-02-10T07:15:50.320Z,26.70
2018-02-10T07:16:52.844Z,27.23
2018-02-10T07:17:55.369Z,29.12
2018-02-10T07:18:57.888Z,26.85
2018-02-10T07:20:01.180Z,28.52
2018-02-10T07:21:04.508Z,30.42
2018-02-10T07:22:07.032Z,28.80
2018-02-10T07:23:10.365Z,29.55
2018-02-10T07:24:12.887Z,29.58
2018-02-10T07:25:16.174Z,30.25
2018-02-10T07:26:18.700Z,27.85
2018-02-10T07:27:21.229Z,28.48
2018-02-10T07:28:23.788Z,29.00
2018-02-10T07:29:26.405Z,28.55
2018-02-10T07:30:28.936Z,29.40
2018-02-10T07:31:31.465Z,30.35
2018-02-10T07:32:34.005Z,29.25
2018-02-10T07:33:36.572Z,30.05
2018-02-10T07:34:39.102Z,32.25
2018-02-10T07:35:41.629Z,31.58
2018-02-10T07:36:44.917Z,31.87
2018-02-10T07:37:47.453Z,29.40
2018-02-10T07:38:50.009Z,29.40
2018-02-10T07:39:52.528Z,31.77
2018-02-10T07:40:55.060Z,31.48
2018-02-10T07:41:57.579Z,30.00
2018-02-10T07:43:00.103Z,31.10
2018-02-10T07:44:03.414Z,30.23
2018-02-10T07:45:05.950Z,30.67
2018-02-10T07:46:09.240Z,31.00
2018-02-10T07:47:12.528Z,30.35
2018-02-10T07:48:15.823Z,30.27
2018-02-10T07:49:18.384Z,30.45
2018-02-10T07:50:20.913Z,30.33
2018-02-10T07:51:23.447Z,29.48
2018-02-10T07:52:25.967Z,31.05
2018-02-10T07:53:29.244Z,31.52
2018-02-10T07:54:31.816Z,30.12
2018-02-10T07:55:35.117Z,33.58
2018-02-10T07:56:37.644Z,29.58
2018-02-10T07:57:40.177Z,31.15
2018-02-10T07:58:42.701Z,31.27
2018-02-10T07:59:46.013Z,32.92
2018-02-10T08:00:48.535Z,31.15
2018-02-10T08:01:51.057Z,32.90
2018-02-10T08:02:53.592Z,32.40
2018-02-10T08:03:56.164Z,32.13
2018-02-10T08:04:58.683Z,32.05
2018-02-10T08:06:01.202Z,30.85
2018-02-10T08:07:03.722Z,30.60
2018-02-10T08:08:06.240Z,29.73
2018-02-10T08:09:08.792Z,30.15
2018-02-10T08:10:11.314Z,29.92
2018-02-10T08:11:13.823Z,31.92
2018-02-10T08:12:16.340Z,30.35
2018-02-10T08:13:18.893Z,29.45
2018-02-10T08:14:21.444Z,32.47
2018-02-10T08:15:23.966Z,30.85
2018-02-10T08:16:27.250Z,30.50
2018-02-10T08:17:30.530Z,30.58
2018-02-10T08:18:33.053Z,29.92
2018-02-10T08:19:35.644Z,28.10
2018-02-10T08:20:38.213Z,29.17
2018-02-10T08:21:40.733Z,30.23
2018-02-10T08:22:43.248Z,30.65
2018-02-10T08:23:45.778Z,31.95
2018-02-10T08:24:48.296Z,30.35
2018-02-10T08:25:51.612Z,31.17
2018-02-10T08:26:54.175Z,32.22
2018-02-10T08:27:56.701Z,32.50
2018-02-10T08:28:59.224Z,31.12
2018-02-10T08:30:01.736Z,32.85
2018-02-10T08:31:04.253Z,32.08
2018-02-10T08:32:06.813Z,32.40
2018-02-10T08:33:09.364Z,30.08
2018-02-10T08:34:11.888Z,31.67
2018-02-10T08:35:14.400Z,28.83
2018-02-10T08:36:16.918Z,30.00
2018-02-10T08:37:19.454Z,29.95
2018-02-10T08:38:22.016Z,32.42
2018-02-10T08:39:24.540Z,30.45
2018-02-10T08:40:27.820Z,30.60
2018-02-10T08:41:31.141Z,30.65
2018-02-10T08:42:33.666Z,31.87
2018-02-10T08:43:36.364Z,29.52
2018-02-10T08:44:38.880Z,29.23
2018-02-10T08:45:41.404Z,29.20
2018-02-10T08:46:43.969Z,28.77
2018-02-10T08:47:46.508Z,28.70
2018-02-10T08:48:49.799Z,29.40
2018-02-10T08:49:53.086Z,29.77
2018-02-10T08:50:56.380Z,30.80
2018-02-10T08:51:58.940Z,29.95
2018-02-10T08:53:02.224Z,28.55
2018-02-10T08:54:05.505Z,30.25
2018-02-10T08:55:08.828Z,29.75
2018-02-10T08:56:11.417Z,28.77
2018-02-10T08:57:13.973Z,30.37
2018-02-10T08:58:16.526Z,30.52
2018-02-10T08:59:19.052Z,32.00
2018-02-10T09:00:22.334Z,33.63
2018-02-10T09:01:25.636Z,31.45
2018-02-10T09:02:28.194Z,32.03
2018-02-10T09:03:30.726Z,32.20
2018-02-10T09:04:33.293Z,32.75
2018-02-10T09:05:35.821Z,33.72
2018-02-10T09:06:38.345Z,30.15
2018-02-10T09:07:41.632Z,33.20
2018-02-10T09:08:44.918Z,33.15
2018-02-10T09:09:48.254Z,32.65
2018-02-10T09:10:50.773Z,31.73
2018-02-10T09:11:54.057Z,31.10
2018-02-10T09:12:57.387Z,31.83
2018-02-10T09:13:59.948Z,32.78
2018-02-10T09:15:02.468Z,32.47
2018-02-10T09:16:05.761Z,30.90
2018-02-10T09:17:09.044Z,30.73
2018-02-10T09:18:11.614Z,32.05
2018-02-10T09:19:14.173Z,30.62
2018-02-10T09:20:21.559Z,32.10
2018-02-10T09:21:24.044Z,30.60
2018-02-10T09:22:26.561Z,31.02
2018-02-10T09:23:29.094Z,32.00
2018-02-10T09:24:31.649Z,31.37
2018-02-10T09:25:34.214Z,30.37
2018-02-10T09:26:36.784Z,30.52
2018-02-10T09:27:39.311Z,28.20
2018-02-10T09:28:42.599Z,29.77
2018-02-10T09:29:45.893Z,29.12
2018-02-10T09:30:48.408Z,29.63
2018-02-10T09:31:50.980Z,30.08
2018-02-10T09:32:53.505Z,30.52
2018-02-10T09:33:56.027Z,32.45
2018-02-10T09:34:58.557Z,29.73
2018-02-10T09:36:01.074Z,29.00
2018-02-10T09:37:04.413Z,27.80
2018-02-10T09:38:07.717Z,29.23
2018-02-10T09:39:10.237Z,29.75
2018-02-10T09:40:12.753Z,31.23
2018-02-10T09:41:15.273Z,29.25
2018-02-10T09:42:17.833Z,29.45
2018-02-10T09:43:20.406Z,29.20
2018-02-10T09:44:22.935Z,29.80
2018-02-10T09:45:26.235Z,30.05
2018-02-10T09:46:28.798Z,30.15
2018-02-10T09:47:32.089Z,30.17
2018-02-10T09:48:34.622Z,32.47
2018-02-10T09:49:37.153Z,30.77
2018-02-10T09:50:39.676Z,31.77
2018-02-10T09:51:42.992Z,33.80
2018-02-10T09:52:45.513Z,32.85
2018-02-10T09:53:48.799Z,31.17
2018-02-10T09:54:52.119Z,31.37
2018-02-10T09:55:54.669Z,30.52
2018-02-10T09:56:57.185Z,30.35
2018-02-10T09:57:59.702Z,30.83
2018-02-10T09:59:02.265Z,31.58
2018-02-10T10:00:04.797Z,30.92
2018-02-10T10:01:07.321Z,35.05
2018-02-10T10:02:09.841Z,35.67
2018-02-10T10:03:13.165Z,35.80
2018-02-10T10:04:16.443Z,37.08
2018-02-10T10:05:19.001Z,34.15
2018-02-10T10:06:21.528Z,33.47
2018-02-10T10:07:24.045Z,34.03
2018-02-10T10:08:31.249Z,31.42
2018-02-10T10:09:33.769Z,30.55
2018-02-10T10:10:37.085Z,33.13
2018-02-10T10:11:39.624Z,32.58
2018-02-10T10:12:42.145Z,33.72
2018-02-10T10:13:44.709Z,33.40
2018-02-10T10:14:47.237Z,33.05
2018-02-10T10:15:49.756Z,32.90
2018-02-10T10:16:52.272Z,32.50
2018-02-10T10:17:54.796Z,31.37
2018-02-10T10:18:58.132Z,33.63
2018-02-10T10:20:00.661Z,32.30
2018-02-10T10:21:03.201Z,33.13
2018-02-10T10:22:05.721Z,31.05
2018-02-10T10:23:08.244Z,29.58
2018-02-10T10:24:11.589Z,29.30
2018-02-10T10:25:14.105Z,30.77
2018-02-10T10:26:17.401Z,30.00
2018-02-10T10:27:19.931Z,29.98
2018-02-10T10:28:22.456Z,29.48
2018-02-10T10:29:25.007Z,30.15
2018-02-10T10:30:27.531Z,28.08
2018-02-10T10:31:30.087Z,27.27
2018-02-10T10:32:32.612Z,28.35
2018-02-10T10:33:35.142Z,27.50
2018-02-10T10:34:38.427Z,27.62
2018-02-10T10:35:41.734Z,24.95
2018-02-10T10:36:44.289Z,26.83
2018-02-10T10:37:47.569Z,27.25
2018-02-10T10:38:50.857Z,28.52
2018-02-10T10:39:54.143Z,28.67
2018-02-10T10:40:57.421Z,27.62
2018-02-10T10:42:00.736Z,27.00
2018-02-10T10:43:03.260Z,26.98
2018-02-10T10:44:05.808Z,24.55
2018-02-10T10:45:08.324Z,26.87
2018-02-10T10:46:10.845Z,26.17
2018-02-10T10:47:13.367Z,26.98
2018-02-10T10:48:15.937Z,25.50
2018-02-10T10:49:18.486Z,26.37
2018-02-10T10:50:21.041Z,26.85
2018-02-10T10:51:24.316Z,28.00
2018-02-10T10:52:27.610Z,27.73
2018-02-10T10:53:30.144Z,26.65
2018-02-10T10:54:32.700Z,25.73
2018-02-10T10:55:35.217Z,26.45
2018-02-10T10:56:37.764Z,28.45
2018-02-10T10:57:41.071Z,27.17
2018-02-10T10:58:43.592Z,26.85
2018-02-10T10:59:46.180Z,25.73
2018-02-10T11:00:49.468Z,26.67
2018-02-10T11:01:52.769Z,27.73
2018-02-10T11:02:55.284Z,26.12
2018-02-10T11:03:57.804Z,27.50
2018-02-10T11:05:00.373Z,28.77
2018-02-10T11:06:02.893Z,25.98
2018-02-10T11:07:05.416Z,28.75
2018-02-10T11:08:07.940Z,27.27
2018-02-10T11:09:11.232Z,26.25
2018-02-10T11:10:14.566Z,27.60
2018-02-10T11:11:17.084Z,26.17
2018-02-10T11:12:20.377Z,28.50
2018-02-10T11:13:22.910Z,25.37
2018-02-10T11:14:25.472Z,27.30
2018-02-10T11:15:27.985Z,26.50
2018-02-10T11:16:30.550Z,21.30
2018-02-10T11:17:33.072Z,27.10
2018-02-10T11:18:35.588Z,26.02
2018-02-10T11:19:38.113Z,29.60
2018-02-10T11:20:41.406Z,28.87
2018-02-10T11:21:44.733Z,27.17
2018-02-10T11:22:47.253Z,27.60
2018-02-10T11:23:50.560Z,28.33
2018-02-10T11:24:53.085Z,28.40
2018-02-10T11:25:55.648Z,29.70
2018-02-10T11:26:58.165Z,27.30
2018-02-10T11:28:00.697Z,28.25
2018-02-10T11:29:03.992Z,28.17
2018-02-10T11:30:07.281Z,28.58
2018-02-10T11:31:09.884Z,28.85
2018-02-10T11:32:12.433Z,27.15
2018-02-10T11:33:14.964Z,29.80
2018-02-10T11:34:17.495Z,30.10
2018-02-10T11:35:20.056Z,31.92
2018-02-10T11:36:22.573Z,31.00
2018-02-10T11:37:25.132Z,31.45
2018-02-10T11:38:28.456Z,30.98
2018-02-10T11:39:30.982Z,30.50
2018-02-10T11:40:34.318Z,32.95
2018-02-10T11:41:36.886Z,32.45
2018-02-10T11:42:39.407Z,31.85
2018-02-10T11:43:42.710Z,33.20
2018-02-10T11:44:45.264Z,37.50
2018-02-10T11:45:47.793Z,34.13
2018-02-10T11:46:50.370Z,30.92
2018-02-10T11:47:52.981Z,31.35
2018-02-10T11:48:55.505Z,31.02
2018-02-10T11:49:58.030Z,28.77
2018-02-10T11:51:00.628Z,28.62
2018-02-10T11:52:03.196Z,31.05
2018-02-10T11:53:05.716Z,30.37
2018-02-10T11:54:08.232Z,30.83
2018-02-10T11:55:10.754Z,31.02
2018-02-10T11:56:13.269Z,29.30
2018-02-10T11:57:15.840Z,29.15
2018-02-10T11:58:18.364Z,32.08
2018-02-10T11:59:20.876Z,31.90
2018-02-10T12:00:24.198Z,31.05
2018-02-10T12:01:26.745Z,29.95
2018-02-10T12:02:30.061Z,31.92
2018-02-10T12:03:32.578Z,32.60
2018-02-10T12:04:35.866Z,30.40
2018-02-10T12:05:39.188Z,29.42
2018-02-10T12:06:41.708Z,32.25
2018-02-10T12:07:44.232Z,30.25
2018-02-10T12:08:46.794Z,29.50
2018-02-10T12:09:49.316Z,28.87
2018-02-10T12:10:52.640Z,29.17
2018-02-10T12:11:55.169Z,30.00
2018-02-10T12:12:58.460Z,29.33
2018-02-10T12:14:01.779Z,30.45
2018-02-10T12:15:04.302Z,28.65
2018-02-10T12:16:07.588Z,29.10
2018-02-10T12:17:10.880Z,30.15
2018-02-10T12:19:22.390Z,29.65
2018-02-10T12:20:24.904Z,28.42
2018-02-10T12:21:27.432Z,28.80
2018-02-10T12:22:29.957Z,27.75
2018-02-10T12:23:33.286Z,27.48
2018-02-10T12:24:35.808Z,29.02
2018-02-10T12:25:38.337Z,27.17
2018-02-10T12:26:40.865Z,27.75
2018-02-10T12:27:43.385Z,26.83
2018-02-10T12:28:46.764Z,27.55
2018-02-10T12:29:49.285Z,28.23
2018-02-10T12:30:51.805Z,24.73
2018-02-10T12:31:54.325Z,26.95
2018-02-10T12:32:56.836Z,27.45
2018-02-10T12:34:00.168Z,25.25
2018-02-10T12:35:02.689Z,29.67
2018-02-10T12:36:05.973Z,28.40
2018-02-10T12:37:09.260Z,26.42
2018-02-10T12:38:12.543Z,28.08
2018-02-10T12:39:15.861Z,26.65
2018-02-10T12:40:18.385Z,25.70
2018-02-10T12:41:20.956Z,28.23
2018-02-10T12:42:24.249Z,24.95
2018-02-10T12:43:27.529Z,25.23
2018-02-10T12:44:30.811Z,25.33
2018-02-10T12:45:34.096Z,26.83
2018-02-10T12:46:37.421Z,25.15
2018-02-10T12:47:56.588Z,26.98
2018-02-10T12:50:34.336Z,25.40
2018-02-10T12:51:37.628Z,26.15
2018-02-10T12:52:40.909Z,24.75
2018-02-10T12:53:44.200Z,25.70
2018-02-10T12:54:46.764Z,26.60
2018-02-10T12:55:49.296Z,24.92
2018-02-10T12:56:51.817Z,25.02
2018-02-10T12:57:54.328Z,25.48
2018-02-10T12:58:56.851Z,26.05
2018-02-10T12:59:59.397Z,26.62
2018-02-10T13:01:01.920Z,25.50
2018-02-10T13:02:04.445Z,24.80
2018-02-10T13:03:07.027Z,25.40
2018-02-10T13:04:09.547Z,25.95
2018-02-10T13:05:12.829Z,26.55
2018-02-10T13:06:16.105Z,24.73
2018-02-10T13:07:18.620Z,25.05
2018-02-10T13:08:21.184Z,27.87
2018-02-10T13:09:23.702Z,27.70
2018-02-10T13:10:26.995Z,25.60
2018-02-10T13:11:30.293Z,24.95
2018-02-10T13:12:32.810Z,23.92
2018-02-10T13:13:35.387Z,24.80
2018-02-10T13:14:37.905Z,25.65
2018-02-10T13:15:40.452Z,24.67
2018-02-10T13:16:43.733Z,25.35
2018-02-10T13:17:47.016Z,25.98
2018-02-10T13:18:50.338Z,25.70
2018-02-10T13:19:52.879Z,26.75
2018-02-10T13:20:55.401Z,24.20
2018-02-10T13:21:57.924Z,24.63
2018-02-10T13:23:00.486Z,23.73
2018-02-10T13:24:02.999Z,24.75
2018-02-10T13:25:05.560Z,27.08
2018-02-10T13:26:08.132Z,24.40
2018-02-10T13:27:10.658Z,26.20
2018-02-10T13:28:13.180Z,26.17
2018-02-10T13:29:15.697Z,27.70
2018-02-10T13:30:18.218Z,26.15
2018-02-10T13:31:21.531Z,25.83
2018-02-10T13:32:24.081Z,26.60